Time;durP1;ratioP1;P1;durP2;ratioP2;P2;SDS_P1;SDS_P2;PMS_P1;PMS_P2;Temp;Humidity;BMP_temperature;BMP_pressure;BME280_temperature;BME280_humidity;BME280_pressure;Samples;Min_cycle;Max_cycle;Signal;HPM_P1;HPM_P2
2022/05/15 00:02:06;;;;;;;21.10;7.47;;;;;;;15.40;57.04;101937.84;5226738;28;20042;-75
2022/05/15 00:04:37;;;;;;;20.17;6.67;;;;;;;15.42;57.19;101935.97;5210579;28;20477;-76
2022/05/15 00:07:09;;;;;;;28.03;7.30;;;;;;;15.19;58.19;101932.13;5220741;28;20117;-76
2022/05/15 00:09:41;;;;;;;26.13;7.33;;;;;;;15.17;58.71;101942.78;5211634;28;20018;-76
2022/05/15 00:12:12;;;;;;;25.03;7.07;;;;;;;15.11;58.00;101938.72;5219763;28;20636;-76
2022/05/15 00:14:44;;;;;;;31.63;9.40;;;;;;;15.16;58.02;101930.53;5219343;28;20049;-76
2022/05/15 00:17:16;;;;;;;23.37;7.10;;;;;;;14.96;58.59;101939.66;5208506;28;20045;-76
2022/05/15 00:19:47;;;;;;;26.33;8.73;;;;;;;14.99;58.39;101934.22;5213391;28;20710;-75
2022/05/15 00:22:18;;;;;;;25.00;7.63;;;;;;;15.12;58.02;101923.75;5210972;28;20022;-75
2022/05/15 00:24:50;;;;;;;27.03;9.23;;;;;;;14.92;58.43;101927.63;5219712;28;20033;-76
2022/05/15 00:27:21;;;;;;;23.40;7.90;;;;;;;14.85;59.00;101927.16;5227373;28;20026;-76
2022/05/15 00:29:52;;;;;;;21.53;7.13;;;;;;;15.09;57.85;101918.66;5215191;28;20100;-74
2022/05/15 00:32:23;;;;;;;22.33;7.10;;;;;;;14.88;58.39;101924.31;5217179;28;20029;-76
2022/05/15 00:34:54;;;;;;;24.57;7.20;;;;;;;15.00;57.97;101915.66;5218697;28;20034;-77
2022/05/15 00:37:26;;;;;;;21.93;7.47;;;;;;;14.74;58.73;101915.44;5214817;28;20036;-76
2022/05/15 00:39:58;;;;;;;25.13;7.50;;;;;;;15.01;57.92;101924.41;5211599;28;20111;-76
2022/05/15 00:42:29;;;;;;;29.07;8.27;;;;;;;14.96;58.21;101919.41;5221243;28;20029;-76
2022/05/15 00:45:00;;;;;;;30.87;7.43;;;;;;;14.79;58.80;101922.19;5220169;28;20053;-76
2022/05/15 00:47:31;;;;;;;27.23;8.30;;;;;;;14.79;58.42;101916.94;5226189;28;20442;-76
2022/05/15 00:50:06;;;;;;;25.57;8.10;;;;;;;14.64;59.04;101909.03;5212036;28;20045;-76
2022/05/15 00:52:40;;;;;;;;;;;;;;;15.21;56.08;101917.03;5226750;28;20037;-76
2022/05/15 00:55:16;;;;;;;23.40;7.35;;;;;;;14.64;58.56;101914.28;5228293;28;20412;-76
2022/05/15 00:57:52;;;;;;;25.93;8.47;;;;;;;14.67;58.69;101916.75;5214799;28;20025;-76
2022/05/15 01:00:27;;;;;;;24.40;7.60;;;;;;;14.70;58.63;101918.34;5226494;28;20029;-76
2022/05/15 01:03:04;;;;;;;22.27;7.73;;;;;;;14.59;59.05;101905.81;5224956;23;20445;-76
2022/05/15 01:05:42;;;;;;;22.97;7.47;;;;;;;14.49;59.38;101911.63;5234203;28;20045;-76
2022/05/15 01:08:14;;;;;;;27.10;7.57;;;;;;;14.39;59.64;101916.59;5232565;28;20021;-76
2022/05/15 01:10:52;;;;;;;29.70;8.60;;;;;;;14.34;59.65;101909.91;5227894;28;20029;-76
2022/05/15 01:13:27;;;;;;;24.70;7.00;;;;;;;14.38;59.57;101911.44;5215257;28;20484;-77
2022/05/15 01:15:59;;;;;;;28.50;7.40;;;;;;;14.18;60.06;101913.44;5220145;28;20033;-76
2022/05/15 01:18:33;;;;;;;27.10;7.80;;;;;;;14.25;59.86;101913.94;5227929;28;20113;-76
2022/05/15 01:21:35;;;;;;;28.88;8.82;;;;;;;14.42;58.88;101907.66;5215974;28;20033;-76
2022/05/15 01:24:08;;;;;;;25.70;8.57;;;;;;;14.16;60.39;101910.03;5191976;28;20124;-76
2022/05/15 01:26:40;;;;;;;23.67;9.00;;;;;;;14.14;60.25;101919.81;5229169;28;20044;-76
2022/05/15 01:29:11;;;;;;;20.47;6.60;;;;;;;14.01;60.68;101911.78;5232736;28;20768;-76
2022/05/15 01:31:43;;;;;;;22.20;7.10;;;;;;;13.99;60.92;101914.50;5233847;28;20048;-76
2022/05/15 01:34:14;;;;;;;30.17;7.33;;;;;;;14.00;60.51;101916.19;5220847;28;20065;-77
2022/05/15 01:36:48;;;;;;;27.33;8.23;;;;;;;14.02;60.70;101919.59;5213552;28;20068;-76
2022/05/15 01:39:19;;;;;;;25.90;7.90;;;;;;;13.95;60.85;101917.38;5223124;28;20103;-77
2022/05/15 01:41:50;;;;;;;24.10;7.83;;;;;;;13.93;60.86;101914.84;5234199;28;20029;-77
2022/05/15 01:44:22;;;;;;;33.80;9.27;;;;;;;13.77;61.29;101909.63;5232393;28;20060;-77
2022/05/15 01:46:53;;;;;;;22.53;7.10;;;;;;;13.72;61.56;101917.75;5232501;28;20092;-77
2022/05/15 01:49:25;;;;;;;24.80;7.33;;;;;;;13.86;61.32;101913.53;5219309;28;20026;-76
2022/05/15 01:51:56;;;;;;;23.23;6.87;;;;;;;13.65;61.96;101913.75;5219986;28;20095;-77
2022/05/15 01:54:27;;;;;;;26.20;7.47;;;;;;;13.79;61.46;101915.63;5213322;28;20444;-76
2022/05/15 01:56:59;;;;;;;27.00;7.37;;;;;;;13.75;61.49;101907.03;5227438;28;20037;-76
2022/05/15 01:59:30;;;;;;;21.50;7.00;;;;;;;13.70;61.70;101911.72;5217978;28;20026;-76
2022/05/15 02:02:02;;;;;;;24.37;6.87;;;;;;;13.62;62.07;101908.69;5219934;28;20030;-76
2022/05/15 02:04:34;;;;;;;22.57;8.20;;;;;;;13.58;62.24;101902.75;5221999;28;20037;-76
2022/05/15 02:07:06;;;;;;;23.50;6.73;;;;;;;13.56;62.38;101899.38;5229476;28;20403;-76
2022/05/15 02:09:37;;;;;;;27.33;8.20;;;;;;;13.54;62.49;101907.31;5219308;28;20048;-76
2022/05/15 02:12:09;;;;;;;25.13;7.77;;;;;;;13.47;62.53;101895.44;5222588;28;20531;-76
2022/05/15 02:14:41;;;;;;;28.90;8.70;;;;;;;13.28;63.48;101898.22;5229134;28;20071;-76
2022/05/15 02:17:12;;;;;;;19.77;7.37;;;;;;;13.21;63.64;101902.13;5220814;28;20033;-77
2022/05/15 02:19:43;;;;;;;26.40;8.43;;;;;;;13.22;63.60;101903.78;5213572;28;20050;-77
2022/05/15 02:22:15;;;;;;;29.03;8.03;;;;;;;13.17;64.26;101901.44;5212981;28;20473;-76
2022/05/15 02:24:46;;;;;;;26.50;8.00;;;;;;;13.30;63.70;101897.19;5214389;28;20030;-77
2022/05/15 02:27:17;;;;;;;22.27;7.60;;;;;;;13.26;63.80;101898.31;5231186;28;20056;-76
2022/05/15 02:29:49;;;;;;;22.93;6.50;;;;;;;13.14;63.87;101901.59;5213545;28;20460;-77
2022/05/15 02:32:20;;;;;;;21.53;7.00;;;;;;;13.27;63.73;101905.25;5231671;28;20091;-76
2022/05/15 02:34:51;;;;;;;27.60;7.73;;;;;;;12.99;64.50;101895.34;5232868;28;20139;-76
2022/05/15 02:37:22;;;;;;;21.47;6.47;;;;;;;13.09;64.61;101887.84;5230744;28;20659;-76
2022/05/15 02:39:54;;;;;;;26.37;7.50;;;;;;;13.06;64.52;101900.22;5229321;28;20034;-76
2022/05/15 02:42:26;;;;;;;27.63;7.23;;;;;;;13.06;64.49;101896.72;5230820;28;20034;-76
2022/05/15 02:44:57;;;;;;;23.97;7.47;;;;;;;12.99;64.57;101888.31;5232853;28;20036;-76
2022/05/15 02:47:28;;;;;;;22.90;7.43;;;;;;;13.01;64.45;101897.00;5219743;28;20045;-76
2022/05/15 02:52:49;;;;;;;21.33;6.63;;;;;;;13.02;64.71;101888.16;5211658;28;20535;-76
2022/05/15 02:55:22;;;;;;;24.57;6.83;;;;;;;12.93;65.00;101878.97;5212093;28;20022;-76
2022/05/15 02:57:54;;;;;;;23.73;6.47;;;;;;;12.91;65.19;101886.13;5195080;28;20018;-76
2022/05/15 03:00:26;;;;;;;27.33;8.33;;;;;;;12.88;65.37;101888.06;5222159;28;20033;-76
2022/05/15 03:02:58;;;;;;;29.80;7.83;;;;;;;12.77;66.49;101886.84;5230814;28;20088;-76
2022/05/15 03:05:29;;;;;;;24.60;7.57;;;;;;;12.68;66.38;101867.16;5232510;28;20061;-76
2022/05/15 03:08:00;;;;;;;24.80;9.30;;;;;;;12.61;66.65;101876.28;5218078;28;20059;-76
2022/05/15 03:10:32;;;;;;;26.30;8.20;;;;;;;12.75;66.37;101880.81;5212231;28;20092;-76
2022/05/15 03:13:03;;;;;;;25.17;6.60;;;;;;;12.85;65.92;101872.44;5211967;28;20084;-75
2022/05/15 03:15:34;;;;;;;26.90;8.00;;;;;;;12.70;66.45;101882.84;5221230;28;20037;-75
2022/05/15 03:18:06;;;;;;;23.17;8.17;;;;;;;12.64;66.31;101873.50;5221738;28;20025;-75
2022/05/15 03:20:37;;;;;;;28.47;8.23;;;;;;;12.78;65.95;101872.75;5216392;28;20125;-75
2022/05/15 03:23:08;;;;;;;33.50;8.67;;;;;;;12.80;65.55;101863.03;5216434;28;20025;-75
2022/05/15 03:25:40;;;;;;;25.47;7.27;;;;;;;12.50;66.91;101876.84;5231071;28;20061;-76
2022/05/15 03:28:12;;;;;;;22.43;7.70;;;;;;;12.75;65.78;101877.34;5231783;28;20624;-75
2022/05/15 03:30:45;;;;;;;20.33;6.87;;;;;;;12.71;66.29;101881.91;5226194;28;20105;-76
2022/05/15 03:33:16;;;;;;;30.93;7.97;;;;;;;12.59;66.71;101870.25;5218297;28;20034;-76
2022/05/15 03:35:47;;;;;;;23.10;8.00;;;;;;;12.60;66.64;101876.38;5224810;28;20080;-76
2022/05/15 03:38:19;;;;;;;22.00;7.00;;;;;;;12.48;67.08;101873.44;5211169;28;20530;-76
2022/05/15 03:40:50;;;;;;;24.87;7.00;;;;;;;12.48;67.37;101873.44;5223951;28;20444;-76
2022/05/15 03:43:21;;;;;;;22.13;7.93;;;;;;;12.48;67.14;101868.19;5222551;28;20022;-76
2022/05/15 03:45:52;;;;;;;21.93;6.63;;;;;;;12.49;66.92;101869.88;5210536;28;20073;-77
2022/05/15 03:48:24;;;;;;;26.20;7.80;;;;;;;12.47;67.32;101871.75;5212305;28;20072;-76
2022/05/15 03:50:55;;;;;;;26.83;8.37;;;;;;;12.30;68.24;101868.22;5226030;28;20076;-76
2022/05/15 03:53:27;;;;;;;25.90;6.70;;;;;;;12.19;68.86;101873.16;5210799;28;20451;-77
2022/05/15 03:55:59;;;;;;;26.53;8.17;;;;;;;12.28;68.53;101872.69;5218602;28;20018;-77
2022/05/15 03:58:33;;;;;;;24.07;7.00;;;;;;;12.19;68.69;101870.50;5208072;28;20028;-75
2022/05/15 04:01:05;;;;;;;;;;;;;;;12.66;65.23;101870.78;5220743;28;20064;-76
2022/05/15 04:03:36;;;;;;;23.47;8.27;;;;;;;12.08;69.06;101869.25;5218683;28;20406;-76
2022/05/15 04:06:07;;;;;;;21.03;6.57;;;;;;;12.20;68.84;101867.81;5225599;28;20025;-75
2022/05/15 04:08:39;;;;;;;25.57;7.70;;;;;;;12.08;69.04;101861.38;5231802;28;20018;-76
2022/05/15 04:11:10;;;;;;;22.50;7.13;;;;;;;12.02;69.64;101873.97;5228166;28;20426;-77
2022/05/15 04:13:41;;;;;;;20.27;6.87;;;;;;;12.15;69.03;101871.63;5228297;28;20247;-76
2022/05/15 04:16:13;;;;;;;28.50;8.33;;;;;;;12.19;69.11;101887.13;5224865;28;20034;-76
2022/05/15 04:18:44;;;;;;;22.80;8.13;;;;;;;11.98;69.40;101886.38;5228033;28;20045;-76
2022/05/15 04:21:16;;;;;;;25.30;8.57;;;;;;;12.07;70.05;101885.94;5216059;28;20400;-76
2022/05/15 04:23:47;;;;;;;31.67;9.73;;;;;;;12.09;70.16;101893.78;5215964;28;20422;-76
2022/05/15 04:26:19;;;;;;;27.03;7.43;;;;;;;12.01;70.50;101891.47;5217260;28;20109;-76
2022/05/15 04:28:50;;;;;;;24.47;7.13;;;;;;;11.90;70.95;101875.41;5214674;28;20811;-76
2022/05/15 04:31:22;;;;;;;22.80;8.70;;;;;;;12.07;70.57;101882.47;5221906;28;20033;-76
2022/05/15 04:33:53;;;;;;;23.37;7.67;;;;;;;11.89;71.47;101881.56;5213714;28;20042;-76
2022/05/15 04:36:24;;;;;;;24.73;8.70;;;;;;;12.09;70.60;101881.50;5225947;28;20148;-76
2022/05/15 04:38:56;;;;;;;23.97;8.07;;;;;;;12.09;70.44;101881.50;5217485;28;20032;-76
2022/05/15 04:41:28;;;;;;;29.30;7.40;;;;;;;11.96;71.33;101877.72;5215276;28;20095;-76
2022/05/15 04:43:59;;;;;;;22.33;8.10;;;;;;;12.02;70.96;101866.94;5223324;28;20029;-76
2022/05/15 04:46:31;;;;;;;23.50;7.13;;;;;;;12.08;71.24;101882.38;5231784;28;20029;-76
2022/05/15 04:49:03;;;;;;;28.37;8.87;;;;;;;12.19;70.60;101879.25;5232268;28;20048;-76
2022/05/15 04:51:35;;;;;;;28.33;7.70;;;;;;;12.17;71.37;101873.22;5228199;28;20040;-76
2022/05/15 04:54:06;;;;;;;27.03;8.70;;;;;;;12.06;71.71;101876.34;5222494;28;20029;-76
2022/05/15 04:56:37;;;;;;;24.20;8.20;;;;;;;12.25;71.05;101878.09;5225862;28;20565;-76
2022/05/15 04:59:09;;;;;;;27.23;8.20;;;;;;;12.17;71.43;101867.13;5214887;28;20057;-76
2022/05/15 05:01:41;;;;;;;23.20;5.97;;;;;;;12.25;71.35;101879.88;5223551;28;20099;-76
2022/05/15 05:04:12;;;;;;;27.50;8.50;;;;;;;12.14;72.22;101876.00;5213687;28;20108;-76
2022/05/15 05:06:43;;;;;;;31.53;8.83;;;;;;;12.27;71.57;101876.22;5231992;28;20041;-76
2022/05/15 05:09:15;;;;;;;27.13;8.43;;;;;;;12.34;71.62;101882.88;5233154;28;20061;-75
2022/05/15 05:11:46;;;;;;;28.07;8.37;;;;;;;12.29;72.37;101884.88;5216675;28;20038;-75
2022/05/15 05:14:19;;;;;;;31.20;9.80;;;;;;;12.42;71.63;101889.53;5230285;28;20116;-75
2022/05/15 05:16:50;;;;;;;25.33;8.70;;;;;;;12.42;71.55;101879.88;5233925;28;20109;-76
2022/05/15 05:19:21;;;;;;;31.77;8.07;;;;;;;12.42;72.01;101884.25;5229872;28;20108;-75
2022/05/15 05:21:53;;;;;;;26.33;8.40;;;;;;;12.49;72.04;101895.31;5214236;28;20568;-75
2022/05/15 05:24:24;;;;;;;24.43;8.77;;;;;;;12.49;72.55;101897.94;5216783;28;20030;-76
2022/05/15 05:26:55;;;;;;;22.03;7.50;;;;;;;12.62;71.35;101877.16;5231854;28;20059;-76
2022/05/15 05:29:27;;;;;;;25.00;8.57;;;;;;;12.66;71.93;101881.28;5231076;28;20029;-76
2022/05/15 05:31:58;;;;;;;27.10;8.60;;;;;;;12.65;71.42;101879.59;5218713;28;20026;-75
2022/05/15 05:34:29;;;;;;;24.63;8.60;;;;;;;12.85;71.85;101883.81;5219986;28;20080;-76
2022/05/15 05:37:01;;;;;;;21.87;8.37;;;;;;;12.89;71.34;101872.22;5211516;28;20037;-76
2022/05/15 05:39:32;;;;;;;26.27;7.90;;;;;;;12.96;71.79;101875.34;5213561;28;20014;-76
2022/05/15 05:42:03;;;;;;;29.00;8.93;;;;;;;13.04;70.45;101874.94;5230660;28;20052;-75
2022/05/15 05:44:35;;;;;;;22.53;8.53;;;;;;;13.03;71.60;101879.34;5232090;28;20052;-76
2022/05/15 05:47:07;;;;;;;21.07;8.73;;;;;;;13.10;72.25;101879.00;5225481;28;20476;-77
2022/05/15 05:49:38;;;;;;;29.33;10.27;;;;;;;13.09;71.39;101872.06;5218925;28;20100;-75
2022/05/15 05:52:09;;;;;;;23.23;8.00;;;;;;;13.28;71.23;101882.44;5224207;28;20052;-76
2022/05/15 05:54:41;;;;;;;24.10;8.67;;;;;;;13.31;70.94;101880.50;5223304;28;20434;-76
2022/05/15 05:57:13;;;;;;;20.50;7.23;;;;;;;13.45;69.22;101883.28;5232909;28;20021;-76
2022/05/15 05:59:45;;;;;;;26.97;8.97;;;;;;;13.43;70.76;101878.09;5225306;28;20057;-76
2022/05/15 06:02:16;;;;;;;26.30;9.90;;;;;;;13.49;70.81;101876.91;5224292;28;20048;-76
2022/05/15 06:04:50;;;;;;;28.67;9.37;;;;;;;13.52;70.26;101880.25;5230159;28;20041;-76
2022/05/15 06:07:24;;;;;;;22.15;8.60;;;;;;;13.58;70.11;101886.94;5212788;28;20057;-76
2022/05/15 06:09:56;;;;;;;26.77;9.83;;;;;;;13.65;70.14;101884.81;5211974;28;20028;-76
2022/05/15 06:12:27;;;;;;;27.23;10.43;;;;;;;13.64;70.49;101883.13;5216490;28;20030;-76
2022/05/15 06:14:58;;;;;;;24.70;9.67;;;;;;;13.76;69.25;101871.91;5228717;28;20037;-76
2022/05/15 06:17:29;;;;;;;22.27;9.00;;;;;;;13.91;69.34;101877.25;5232478;28;20082;-76
2022/05/15 06:20:06;;;;;;;24.93;9.20;;;;;;;14.00;68.99;101875.84;5228777;28;20060;-76
2022/05/15 06:22:37;;;;;;;22.73;8.70;;;;;;;14.05;68.94;101879.03;5195670;28;20026;-76
2022/05/15 06:25:09;;;;;;;24.97;8.57;;;;;;;14.20;68.16;101869.41;5216024;28;20468;-76
2022/05/15 06:27:40;;;;;;;23.53;8.23;;;;;;;14.24;68.95;101876.19;5225205;28;20029;-76
2022/05/15 06:30:12;;;;;;;27.83;12.27;;;;;;;14.35;68.01;101880.81;5219151;28;20209;-76
2022/05/15 06:32:44;;;;;;;23.93;10.20;;;;;;;14.45;67.68;101878.47;5213264;28;20051;-76
2022/05/15 06:35:15;;;;;;;28.13;9.47;;;;;;;14.60;66.80;101875.88;5212310;28;20030;-76
2022/05/15 06:37:47;;;;;;;23.40;9.23;;;;;;;14.62;66.96;101874.00;5211389;28;20079;-76
2022/05/15 06:40:18;;;;;;;23.53;8.83;;;;;;;14.75;66.20;101880.19;5225743;28;20434;-76
2022/05/15 06:42:49;;;;;;;24.60;9.23;;;;;;;14.90;66.08;101872.34;5227492;28;20029;-75
2022/05/15 06:45:20;;;;;;;23.03;10.33;;;;;;;14.98;65.98;101883.25;5235979;28;20064;-76
2022/05/15 06:47:52;;;;;;;19.77;8.77;;;;;;;15.05;66.23;101874.94;5232095;28;20025;-72
2022/05/15 06:50:24;;;;;;;18.93;9.10;;;;;;;15.21;66.34;101880.09;5221391;28;20148;-76
2022/05/15 06:52:55;;;;;;;22.57;11.00;;;;;;;15.32;64.92;101874.16;5211093;28;20034;-76
2022/05/15 06:55:26;;;;;;;23.03;9.20;;;;;;;15.52;64.19;101867.56;5219278;28;20563;-76
2022/05/15 06:57:58;;;;;;;19.23;9.13;;;;;;;15.67;63.91;101871.03;5226218;28;20033;-76
2022/05/15 07:00:29;;;;;;;19.10;8.80;;;;;;;15.88;63.23;101867.94;5214058;28;20038;-76
2022/05/15 07:03:00;;;;;;;21.77;9.40;;;;;;;16.15;62.21;101869.69;5209989;28;20037;-76
2022/05/15 07:05:32;;;;;;;20.07;8.57;;;;;;;16.29;62.61;101870.53;5212418;28;20022;-76
2022/05/15 07:08:05;;;;;;;19.37;8.70;;;;;;;16.52;60.36;101881.34;5228003;28;20037;-76
2022/05/15 07:10:36;;;;;;;17.60;8.87;;;;;;;16.66;59.53;101878.59;5225906;28;20133;-76
2022/05/15 07:13:07;;;;;;;15.33;8.87;;;;;;;16.85;58.74;101877.31;5197755;28;20116;-76
2022/05/15 07:15:39;;;;;;;15.83;8.27;;;;;;;17.26;58.20;101874.50;5212102;28;20465;-76
2022/05/15 07:18:11;;;;;;;22.43;9.27;;;;;;;17.44;56.97;101882.88;5210952;28;20065;-76
2022/05/15 07:20:42;;;;;;;24.37;8.77;;;;;;;17.77;55.95;101884.00;5215644;28;20038;-76
2022/05/15 07:23:14;;;;;;;23.30;8.27;;;;;;;18.09;53.79;101887.00;5211105;28;20117;-76
2022/05/15 07:25:48;;;;;;;21.60;8.97;;;;;;;18.58;54.38;101877.13;5209455;28;20026;-77
2022/05/15 07:28:19;;;;;;;21.80;9.20;;;;;;;19.27;52.12;101897.50;5211199;28;20021;-77
2022/05/15 07:30:50;;;;;;;20.47;8.53;;;;;;;19.88;50.22;101881.97;5210694;28;20049;-77
2022/05/15 07:33:24;;;;;;;21.37;8.80;;;;;;;20.33;49.02;101882.69;5211015;28;20388;-77
2022/05/15 07:35:55;;;;;;;21.50;7.75;;;;;;;20.84;49.16;101875.63;5211842;28;20034;-77
2022/05/15 07:38:27;;;;;;;16.13;7.80;;;;;;;21.60;46.41;101864.59;5210799;28;20092;-76
2022/05/15 07:40:58;;;;;;;18.02;7.78;;;;;;;22.19;45.66;101874.34;5213793;28;20026;-77
2022/05/15 07:43:29;;;;;;;21.73;7.22;;;;;;;22.55;43.65;101873.72;5230043;28;20040;-76
2022/05/15 07:46:01;;;;;;;16.92;7.25;;;;;;;22.84;43.86;101865.59;5230077;28;20025;-76
2022/05/15 07:48:33;;;;;;;17.73;7.53;;;;;;;23.28;41.47;101873.91;5231186;28;20258;-77
2022/05/15 07:51:04;;;;;;;14.68;7.38;;;;;;;23.52;40.06;101877.81;5217661;28;20325;-77
2022/05/15 07:53:38;;;;;;;23.13;7.47;;;;;;;24.24;39.76;101871.53;5214916;28;20037;-76
2022/05/15 07:56:09;;;;;;;17.75;7.80;;;;;;;24.41;39.88;101872.47;5229840;28;20030;-75
2022/05/15 07:58:41;;;;;;;22.80;8.00;;;;;;;25.23;38.21;101872.09;5205652;28;20056;-76
2022/05/15 08:01:12;;;;;;;16.08;6.72;;;;;;;25.32;37.24;101881.00;5219047;28;20022;-76
2022/05/15 08:03:43;;;;;;;14.65;6.85;;;;;;;25.12;36.04;101876.75;5223779;28;20049;-76
2022/05/15 08:09:07;;;;;;;17.02;7.28;;;;;;;26.41;35.68;101868.38;5210572;28;20029;-76
2022/05/15 08:11:39;;;;;;;26.25;6.90;;;;;;;26.36;34.20;101870.75;5223311;28;20033;-77
2022/05/15 08:14:11;;;;;;;13.90;6.55;;;;;;;26.60;34.25;101856.34;5210661;28;20024;-77
2022/05/15 08:16:42;;;;;;;12.73;6.47;;;;;;;27.12;34.06;101869.38;5209203;28;20033;-76
2022/05/15 08:24:53;;;;;;;14.27;6.72;;;;;;;27.87;31.61;101849.97;5216307;28;20427;-77
2022/05/15 08:27:24;;;;;;;19.15;6.25;;;;;;;28.49;31.28;101839.03;5210115;28;20022;-78
2022/05/15 08:29:56;;;;;;;13.98;6.55;;;;;;;29.06;30.10;101841.16;5211427;28;20109;-76
2022/05/15 08:32:27;;;;;;;15.88;6.55;;;;;;;28.78;29.03;101845.41;5209094;28;20152;-76
2022/05/15 08:35:02;;;;;;;16.85;6.53;;;;;;;28.95;29.08;101839.75;5208644;28;20037;-77
2022/05/15 08:37:33;;;;;;;18.90;6.82;;;;;;;29.57;29.08;101829.34;5209758;28;20709;-76
2022/05/15 08:40:05;;;;;;;18.15;6.45;;;;;;;29.61;28.54;101829.81;5210255;28;20064;-77
2022/05/15 08:42:45;;;;;;;20.40;6.65;;;;;;;30.00;27.65;101834.84;5210258;28;20014;-77
2022/05/15 08:45:18;;;;;;;18.95;6.97;;;;;;;29.23;27.29;101831.78;5208360;28;20030;-77
2022/05/15 08:47:56;;;;;;;14.40;5.87;;;;;;;29.31;27.75;101824.56;5209414;28;20089;-76
2022/05/15 08:50:35;;;;;;;13.00;5.97;;;;;;;30.07;27.12;101822.22;5209958;28;20147;-75
2022/05/15 08:53:20;;;;;;;18.48;6.43;;;;;;;29.68;27.13;101822.59;5207233;28;20032;-76
2022/05/15 08:55:55;;;;;;;17.27;6.28;;;;;;;29.97;27.02;101810.94;5209406;28;20519;-77
2022/05/15 08:58:50;;;;;;;13.75;5.90;;;;;;;30.57;26.97;101823.88;5207768;28;20033;-77
2022/05/15 09:01:25;;;;;;;14.25;6.07;;;;;;;29.69;26.38;101821.56;5202274;28;20069;-77
2022/05/15 09:03:57;;;;;;;23.20;6.10;;;;;;;29.74;25.05;101820.13;5200548;28;20100;-81
2022/05/15 09:06:37;;;;;;;17.52;5.53;;;;;;;30.23;24.33;101817.53;5197431;28;20041;-76
2022/05/15 09:09:28;;;;;;;12.40;5.38;;;;;;;29.77;26.72;101815.19;5198808;28;20448;-78
2022/05/15 09:12:12;;;;;;;14.68;5.15;;;;;;;29.63;26.06;101813.41;5196900;28;20037;-77
2022/05/15 09:15:00;;;;;;;16.10;5.47;;;;;;;29.11;25.88;101817.13;5206040;28;20388;-76
2022/05/15 09:17:32;;;;;;;14.30;5.32;;;;;;;28.36;27.58;101815.47;5208414;28;20080;-78
2022/05/15 09:20:18;;;;;;;10.85;4.70;;;;;;;28.65;27.64;101813.72;5209657;28;20472;-78
2022/05/15 09:23:14;;;;;;;19.38;5.35;;;;;;;28.66;27.71;101823.47;5207335;28;20017;-73
2022/05/15 09:26:00;;;;;;;19.67;5.75;;;;;;;28.35;26.56;101805.69;5217431;28;20021;-72
2022/05/15 09:28:45;;;;;;;15.15;4.88;;;;;;;28.07;28.12;101809.06;5219308;28;20388;-76
2022/05/15 09:31:30;;;;;;;17.30;4.22;;;;;;;27.90;28.72;101815.47;5217058;28;20030;-75
2022/05/15 09:34:06;;;;;;;13.48;4.55;;;;;;;27.63;27.64;101812.31;5221346;28;20033;-75
2022/05/15 09:36:44;;;;;;;13.40;4.78;;;;;;;27.73;28.05;101798.66;5215753;28;20083;-76
2022/05/15 09:39:38;;;;;;;15.32;4.85;;;;;;;27.71;28.11;101803.38;5212052;28;20126;-75
2022/05/15 09:45:15;;;;;;;12.65;3.97;;;;;;;27.45;28.46;101804.59;5202087;28;20508;-79
2022/05/15 09:47:52;;;;;;;10.77;3.83;;;;;;;27.33;28.17;101796.13;5192511;28;20034;-78
2022/05/15 09:50:42;;;;;;;11.40;4.20;;;;;;;27.37;28.59;101796.63;5206961;28;20598;-80
2022/05/15 09:53:22;;;;;;;13.27;4.53;;;;;;;27.48;27.51;101792.63;5206367;28;20041;-79
2022/05/15 09:56:02;;;;;;;10.13;3.70;;;;;;;27.34;26.57;101783.50;5198904;28;20026;-77
2022/05/15 09:58:51;;;;;;;20.80;4.43;;;;;;;27.42;28.39;101783.47;5210387;28;20034;-78
2022/05/15 10:01:31;;;;;;;14.07;4.13;;;;;;;27.40;27.46;101777.41;5204894;28;20030;-80
2022/05/15 10:04:19;;;;;;;17.50;3.95;;;;;;;27.60;26.81;101774.19;5209765;28;20132;-81
2022/05/15 10:07:03;;;;;;;16.67;4.43;;;;;;;27.16;27.65;101792.75;5210159;28;20036;-81
2022/05/15 10:09:41;;;;;;;14.88;4.30;;;;;;;27.47;25.32;101799.88;5216584;28;20061;-79
2022/05/15 10:12:30;;;;;;;12.07;3.60;;;;;;;27.50;26.22;101787.91;5214746;28;20349;-80
2022/05/15 10:15:07;;;;;;;15.45;3.75;;;;;;;27.40;25.97;101786.31;5219225;28;20040;-79
2022/05/15 10:17:54;;;;;;;9.27;3.78;;;;;;;27.63;25.48;101768.47;5219825;28;20092;-81
2022/05/15 10:20:30;;;;;;;13.25;4.25;;;;;;;27.43;25.95;101771.66;5216588;28;20049;-80
2022/05/15 10:23:09;;;;;;;19.60;5.15;;;;;;;27.33;27.45;101765.72;5217901;28;20026;-80
2022/05/15 10:26:00;;;;;;;14.20;4.85;;;;;;;27.56;27.05;101768.34;5216069;28;20034;-81
2022/05/15 10:28:50;;;;;;;10.77;3.83;;;;;;;27.64;25.39;101772.81;5215338;28;20108;-79
2022/05/15 10:31:39;;;;;;;12.57;5.32;;;;;;;27.85;25.29;101768.59;5219616;28;20045;-81
2022/05/15 10:34:13;;;;;;;18.25;4.28;;;;;;;27.75;24.35;101767.00;5216069;28;20033;-82
2022/05/15 10:37:25;;;;;;;10.20;3.33;;;;;;;28.12;24.91;101764.38;5203665;28;20132;-85
2022/05/15 10:40:29;;;;;;;13.15;3.55;;;;;;;28.32;23.98;101761.09;5196665;28;20033;-77
2022/05/15 10:43:22;;;;;;;13.27;4.68;;;;;;;28.36;23.91;101748.13;5202807;28;20042;-80
2022/05/15 10:46:19;;;;;;;15.70;4.65;;;;;;;28.25;24.42;101750.25;5197493;28;20054;-80
2022/05/15 10:49:12;;;;;;;11.77;3.50;;;;;;;28.26;24.52;101743.00;5194532;28;20046;-78
2022/05/15 10:51:58;;;;;;;15.30;4.45;;;;;;;28.46;24.69;101739.72;5189199;28;20038;-76
2022/05/15 10:58:19;;;;;;;10.48;4.18;;;;;;;28.99;24.55;101742.13;5187530;28;20042;-73
2022/05/15 11:01:03;;;;;;;10.50;3.50;;;;;;;28.91;23.83;101738.72;5181857;28;20069;-74
2022/05/15 11:04:11;;;;;;;16.35;4.50;;;;;;;29.37;24.74;101729.38;5185699;28;20105;-74
2022/05/15 11:07:00;;;;;;;21.63;6.13;;;;;;;29.58;24.29;101738.44;5185883;28;20054;-76
2022/05/15 11:09:34;;;;;;;14.07;4.55;;;;;;;29.58;22.93;101754.63;5186817;28;20048;-76
2022/05/15 11:12:19;;;;;;;17.80;4.28;;;;;;;29.90;23.34;101754.19;5184830;28;20103;-76
2022/05/15 11:15:03;;;;;;;10.40;3.92;;;;;;;29.84;22.54;101739.63;5185119;28;20073;-76
2022/05/15 11:18:13;;;;;;;16.48;4.25;;;;;;;30.05;23.54;101735.16;5182371;28;20053;-80
2022/05/15 11:20:48;;;;;;;18.88;5.20;;;;;;;29.73;22.72;101734.78;5184826;28;20041;-75
2022/05/15 11:23:28;;;;;;;11.45;3.88;;;;;;;29.88;21.80;101729.28;5181858;28;20138;-76
2022/05/15 11:26:37;;;;;;;10.85;4.45;;;;;;;29.86;23.32;101724.06;5186788;28;20092;-75
2022/05/15 11:29:12;;;;;;;12.15;3.53;;;;;;;29.65;22.43;101709.66;5181231;28;20053;-75
2022/05/15 11:31:56;;;;;;;18.00;3.75;;;;;;;29.99;22.66;101714.38;5180790;28;20045;-76
2022/05/15 11:35:05;;;;;;;12.80;2.65;;;;;;;29.90;22.92;101708.31;5184008;28;20060;-76
2022/05/15 11:37:37;;;;;;;13.75;4.32;;;;;;;28.94;24.39;101706.81;5186807;28;20117;-74
2022/05/15 11:40:31;;;;;;;12.93;3.72;;;;;;;29.54;22.82;101705.59;5180833;28;20042;-75
2022/05/15 11:43:31;;;;;;;11.68;3.88;;;;;;;29.63;23.42;101697.38;5179436;28;20078;-74
2022/05/15 11:46:02;;;;;;;9.15;3.20;;;;;;;29.76;21.44;101692.03;5181383;28;20031;-76
2022/05/15 11:48:39;;;;;;;8.70;2.97;;;;;;;29.74;21.63;101690.56;5179809;28;20061;-75
2022/05/15 11:51:13;;;;;;;7.50;2.92;;;;;;;29.61;21.54;101681.38;5176147;28;20485;-75
2022/05/15 11:53:50;;;;;;;10.55;3.10;;;;;;;29.59;21.53;101683.41;5185984;28;20058;-72
2022/05/15 11:56:30;;;;;;;11.75;3.20;;;;;;;29.78;21.61;101676.47;5190162;28;20069;-74
2022/05/15 11:59:21;;;;;;;11.55;3.72;;;;;;;29.60;22.04;101677.00;5180582;28;20031;-74
2022/05/15 12:01:55;;;;;;;13.07;3.15;;;;;;;29.34;23.34;101656.94;5183700;28;21040;-73
2022/05/15 12:04:33;;;;;;;14.88;3.47;;;;;;;29.64;23.26;101663.97;5186613;28;20046;-73
2022/05/15 12:07:29;;;;;;;10.25;3.17;;;;;;;29.83;22.76;101673.19;5186716;28;20431;-73
2022/05/15 12:10:00;;;;;;;14.13;3.55;;;;;;;29.29;21.87;101673.69;5185138;28;20136;-72
2022/05/15 12:12:46;;;;;;;9.75;3.40;;;;;;;29.17;23.57;101670.72;5198967;28;20098;-73